createdAt,value
2023-05-08T00:01:43.498Z,13.54
2023-05-08T00:04:10.217Z,13.55
2023-05-08T00:06:37.169Z,13.56
2023-05-08T00:09:03.923Z,13.53
2023-05-08T00:11:30.464Z,13.51
2023-05-08T00:13:57.183Z,13.43
2023-05-08T00:16:24.060Z,13.42
2023-05-08T00:18:50.719Z,13.47
2023-05-08T00:21:17.620Z,13.43
2023-05-08T00:23:44.238Z,13.39
2023-05-08T00:26:10.857Z,13.41
2023-05-08T00:28:37.643Z,13.44
2023-05-08T00:31:04.211Z,13.45
2023-05-08T00:33:30.938Z,13.37
2023-05-08T00:36:01.527Z,13.37
2023-05-08T00:38:31.587Z,13.38
2023-05-08T00:40:58.809Z,13.38
2023-05-08T00:43:28.362Z,13.41
2023-05-08T00:46:02.246Z,13.37
2023-05-08T00:48:31.934Z,13.36
2023-05-08T00:50:59.064Z,13.35
2023-05-08T00:53:27.170Z,13.39
2023-05-08T00:55:54.532Z,13.41
2023-05-08T00:58:23.614Z,13.36
2023-05-08T01:00:54.274Z,13.33
2023-05-08T01:03:22.358Z,13.33
2023-05-08T01:05:49.327Z,13.27
2023-05-08T01:08:16.309Z,13.26
2023-05-08T01:11:03.460Z,13.20
2023-05-08T01:14:02.884Z,13.19
2023-05-08T01:16:42.299Z,13.19
2023-05-08T01:19:35.026Z,13.22
2023-05-08T01:22:39.915Z,13.25
2023-05-08T01:25:44.231Z,13.13
2023-05-08T01:28:32.340Z,13.09
2023-05-08T01:31:11.897Z,13.11
2023-05-08T01:33:50.570Z,13.06
2023-05-08T01:36:27.213Z,13.05
2023-05-08T01:39:12.244Z,13.10
2023-05-08T01:41:43.555Z,13.13
2023-05-08T01:44:17.433Z,13.12
2023-05-08T01:46:50.658Z,13.10
2023-05-08T01:49:38.747Z,13.13
2023-05-08T01:52:20.927Z,13.09
2023-05-08T01:55:01.856Z,13.17
2023-05-08T01:57:31.991Z,13.10
2023-05-08T02:00:01.518Z,13.06
2023-05-08T02:02:30.216Z,13.03
2023-05-08T02:04:58.298Z,13.08
2023-05-08T02:07:26.564Z,13.05
2023-05-08T02:09:54.696Z,13.02
2023-05-08T02:12:22.983Z,12.99
2023-05-08T02:14:53.021Z,13.04
2023-05-08T02:17:21.139Z,13.00
2023-05-08T02:19:49.561Z,12.99
2023-05-08T02:22:18.110Z,13.06
2023-05-08T02:24:46.212Z,13.05
2023-05-08T02:27:14.712Z,13.09
2023-05-08T02:29:42.640Z,13.08
2023-05-08T02:32:10.348Z,13.06
2023-05-08T02:34:40.998Z,13.10
2023-05-08T02:37:13.419Z,13.17
2023-05-08T02:39:42.590Z,13.18
2023-05-08T02:42:09.383Z,13.20
2023-05-08T02:44:36.235Z,13.16
2023-05-08T02:47:12.453Z,13.13
2023-05-08T02:49:52.114Z,13.06
2023-05-08T02:52:28.893Z,13.06
2023-05-08T02:55:04.733Z,13.04
2023-05-08T02:58:10.486Z,13.09
2023-05-08T03:00:49.143Z,13.14
2023-05-08T03:03:43.459Z,13.07
2023-05-08T03:06:15.489Z,13.05
2023-05-08T03:08:43.181Z,13.04
2023-05-08T03:11:14.871Z,13.05
2023-05-08T03:13:43.208Z,13.04
2023-05-08T03:16:15.106Z,13.01
2023-05-08T03:18:49.528Z,13.04
2023-05-08T03:21:19.586Z,13.05
2023-05-08T03:23:49.578Z,13.09
2023-05-08T03:26:19.790Z,13.07
2023-05-08T03:28:50.659Z,13.13
2023-05-08T03:31:21.570Z,13.13
2023-05-08T03:33:50.870Z,13.22
2023-05-08T03:36:18.249Z,13.23
2023-05-08T03:38:45.412Z,13.26
2023-05-08T03:41:13.217Z,13.10
2023-05-08T03:43:41.391Z,13.06
2023-05-08T03:46:10.357Z,13.20
2023-05-08T03:48:38.593Z,13.27
2023-05-08T03:51:06.139Z,13.08
2023-05-08T03:53:35.142Z,13.08
2023-05-08T03:56:03.251Z,13.09
2023-05-08T03:58:37.537Z,13.02
2023-05-08T04:01:12.052Z,13.01
2023-05-08T04:03:56.642Z,12.92
2023-05-08T04:06:42.110Z,12.84
2023-05-08T04:09:24.712Z,12.88
2023-05-08T04:12:14.942Z,12.90
2023-05-08T04:14:45.655Z,13.02
2023-05-08T04:17:16.049Z,13.03
2023-05-08T04:19:47.033Z,13.07
2023-05-08T04:22:15.300Z,13.04
2023-05-08T04:24:49.580Z,13.07
2023-05-08T04:27:17.057Z,13.07
2023-05-08T04:29:44.117Z,13.11
2023-05-08T04:32:11.897Z,13.16
2023-05-08T04:34:39.412Z,13.22
2023-05-08T04:37:07.931Z,13.26
2023-05-08T04:39:35.131Z,13.29
2023-05-08T04:42:03.764Z,13.28
2023-05-08T04:44:32.833Z,13.22
2023-05-08T04:46:59.493Z,13.24
2023-05-08T04:49:26.549Z,13.26
2023-05-08T04:51:53.106Z,13.24
2023-05-08T04:54:19.846Z,13.35
2023-05-08T04:56:46.490Z,13.31
2023-05-08T04:59:15.893Z,13.34
2023-05-08T05:01:42.968Z,13.35
2023-05-08T05:04:09.908Z,13.31
2023-05-08T05:06:36.578Z,13.19
2023-05-08T05:09:04.288Z,13.14
2023-05-08T05:11:31.415Z,13.11
2023-05-08T05:13:58.130Z,13.17
2023-05-08T05:16:25.165Z,13.21
2023-05-08T05:18:51.949Z,13.25
2023-05-08T05:21:19.315Z,13.24
2023-05-08T05:23:46.257Z,13.14
2023-05-08T05:26:12.814Z,13.28
2023-05-08T05:28:39.634Z,13.39
2023-05-08T05:31:07.100Z,13.48
2023-05-08T05:33:33.879Z,13.45
2023-05-08T05:36:00.785Z,13.33
2023-05-08T05:38:27.822Z,13.26
2023-05-08T05:40:54.989Z,13.22
2023-05-08T05:43:21.838Z,13.16
2023-05-08T05:45:48.490Z,13.28
2023-05-08T05:48:15.635Z,13.33
2023-05-08T05:50:42.458Z,13.31
2023-05-08T05:53:09.888Z,13.37
2023-05-08T05:55:36.816Z,13.37
2023-05-08T05:58:03.764Z,13.45
2023-05-08T06:00:31.474Z,13.32
2023-05-08T06:02:59.346Z,13.38
2023-05-08T06:05:26.258Z,13.49
2023-05-08T06:07:53.088Z,13.52
2023-05-08T06:10:20.099Z,13.53
2023-05-08T06:12:47.047Z,13.48
2023-05-08T06:15:15.144Z,13.53
2023-05-08T06:17:43.737Z,13.52
2023-05-08T06:20:10.776Z,13.41
2023-05-08T06:22:40.118Z,13.39
2023-05-08T06:25:07.651Z,13.37
2023-05-08T06:27:34.797Z,13.40
2023-05-08T06:30:01.860Z,13.52
2023-05-08T06:32:28.785Z,13.35
2023-05-08T06:34:55.312Z,13.30
2023-05-08T06:37:21.861Z,13.43
2023-05-08T06:39:50.550Z,13.51
2023-05-08T06:42:21.403Z,13.58
2023-05-08T06:44:48.220Z,13.53
2023-05-08T06:47:14.745Z,13.53
2023-05-08T06:49:41.621Z,13.56
2023-05-08T06:52:08.140Z,13.59
2023-05-08T06:54:34.668Z,13.68
2023-05-08T06:57:01.282Z,13.66
2023-05-08T06:59:27.856Z,13.53
2023-05-08T07:01:54.584Z,13.58
2023-05-08T07:04:21.618Z,13.56
2023-05-08T07:06:48.226Z,13.38
2023-05-08T07:09:16.131Z,13.34
2023-05-08T07:11:42.862Z,13.20
2023-05-08T07:14:09.400Z,13.23
2023-05-08T07:16:36.427Z,13.29
2023-05-08T07:19:03.510Z,13.34
2023-05-08T07:21:30.700Z,13.39
2023-05-08T07:23:57.290Z,13.42
2023-05-08T07:26:23.877Z,13.42
2023-05-08T07:28:50.929Z,13.44
2023-05-08T07:31:17.548Z,13.42
2023-05-08T07:33:44.247Z,13.50
2023-05-08T07:36:11.279Z,13.55
2023-05-08T07:38:38.019Z,13.63
2023-05-08T07:41:05.436Z,13.56
2023-05-08T07:43:32.328Z,13.54
2023-05-08T07:45:59.068Z,13.26
2023-05-08T07:48:25.963Z,13.37
2023-05-08T07:50:52.521Z,13.46
2023-05-08T07:53:19.341Z,13.53
2023-05-08T07:55:45.933Z,13.54
2023-05-08T07:58:12.488Z,13.54
2023-05-08T08:00:39.649Z,13.59
2023-05-08T08:03:07.217Z,13.45
2023-05-08T08:05:33.909Z,13.23
2023-05-08T08:08:00.427Z,13.39
2023-05-08T08:10:27.209Z,13.49
2023-05-08T08:12:53.960Z,13.46
2023-05-08T08:15:20.727Z,13.49
2023-05-08T08:17:47.315Z,13.57
2023-05-08T08:20:14.352Z,13.63
2023-05-08T08:22:41.113Z,13.66
2023-05-08T08:25:08.279Z,13.52
2023-05-08T08:27:34.947Z,13.54
2023-05-08T08:30:16.308Z,13.56
2023-05-08T08:32:44.635Z,13.33
2023-05-08T08:35:12.076Z,13.45
2023-05-08T08:37:38.929Z,13.67
2023-05-08T08:40:06.407Z,13.76
2023-05-08T08:42:32.948Z,13.77
2023-05-08T08:45:01.148Z,13.84
2023-05-08T08:47:29.911Z,13.81
2023-05-08T08:50:02.069Z,13.93
2023-05-08T08:52:37.665Z,14.08
2023-05-08T08:55:08.325Z,13.89
2023-05-08T08:57:37.157Z,13.73
2023-05-08T09:00:09.045Z,13.61
2023-05-08T09:02:36.171Z,13.68
2023-05-08T09:05:03.433Z,13.79
2023-05-08T09:07:30.444Z,13.87
2023-05-08T09:09:57.430Z,13.79
2023-05-08T09:12:24.176Z,13.60
2023-05-08T09:14:51.355Z,13.54
2023-05-08T09:17:17.928Z,13.64
2023-05-08T09:19:44.971Z,13.83
2023-05-08T09:22:11.829Z,14.04
2023-05-08T09:24:56.195Z,14.05
2023-05-08T09:27:28.186Z,14.19
2023-05-08T09:30:06.685Z,14.16
2023-05-08T09:32:35.100Z,14.34
2023-05-08T09:35:02.110Z,14.43
2023-05-08T09:37:29.353Z,14.63
2023-05-08T09:40:13.498Z,14.81
2023-05-08T09:42:40.366Z,14.62
2023-05-08T09:45:07.587Z,14.88
2023-05-08T09:47:37.379Z,14.77
2023-05-08T09:50:11.321Z,14.75
2023-05-08T09:52:45.815Z,14.67
2023-05-08T09:55:12.479Z,14.41
2023-05-08T09:57:53.163Z,14.36
2023-05-08T10:00:20.614Z,14.41
2023-05-08T10:03:02.348Z,14.29
2023-05-08T10:05:31.359Z,14.33
2023-05-08T10:07:59.614Z,14.44
2023-05-08T10:10:28.048Z,14.42
2023-05-08T10:12:56.329Z,14.62
2023-05-08T10:15:31.336Z,14.73
2023-05-08T10:18:06.867Z,14.81
2023-05-08T10:20:35.703Z,14.71
2023-05-08T10:23:04.097Z,14.53
2023-05-08T10:25:35.577Z,14.43
2023-05-08T10:28:17.509Z,14.59
2023-05-08T10:30:48.510Z,14.47
2023-05-08T10:33:20.228Z,14.44
2023-05-08T10:35:48.066Z,14.52
2023-05-08T10:38:15.313Z,14.35
2023-05-08T10:40:42.274Z,14.27
2023-05-08T10:43:09.692Z,14.30
2023-05-08T10:45:37.153Z,14.27
2023-05-08T10:48:15.096Z,14.25
2023-05-08T10:51:01.134Z,14.19
2023-05-08T10:53:41.078Z,14.40
2023-05-08T10:56:08.015Z,14.51
2023-05-08T10:58:37.309Z,14.74
2023-05-08T11:01:07.907Z,14.72
2023-05-08T11:03:43.797Z,14.91
2023-05-08T11:06:11.589Z,14.88
2023-05-08T11:08:51.774Z,14.92
2023-05-08T11:11:33.852Z,15.17
2023-05-08T11:14:14.254Z,15.51
2023-05-08T11:16:56.608Z,15.66
2023-05-08T11:19:25.033Z,15.83
2023-05-08T11:22:20.766Z,15.89
2023-05-08T11:24:49.142Z,15.92
2023-05-08T11:27:16.305Z,16.10
2023-05-08T11:29:44.874Z,15.94
2023-05-08T11:32:11.860Z,16.22
2023-05-08T11:34:44.408Z,16.03
2023-05-08T11:37:17.313Z,16.24
2023-05-08T11:39:44.338Z,16.01
2023-05-08T11:42:29.167Z,16.21
2023-05-08T11:45:14.335Z,16.19
2023-05-08T11:47:45.274Z,16.38
2023-05-08T11:50:13.757Z,16.69
2023-05-08T11:52:42.085Z,16.73
2023-05-08T11:55:10.619Z,16.55
2023-05-08T11:57:37.857Z,16.70
2023-05-08T12:00:09.587Z,16.50
2023-05-08T12:02:42.738Z,16.30
2023-05-08T12:05:11.025Z,16.38
2023-05-08T12:07:47.909Z,16.36
2023-05-08T12:10:16.630Z,16.15
2023-05-08T12:12:44.526Z,15.86
2023-05-08T12:15:13.602Z,16.15
2023-05-08T12:17:41.103Z,16.26
2023-05-08T12:20:12.245Z,16.25
2023-05-08T12:22:40.739Z,16.64
2023-05-08T12:25:13.079Z,16.56
2023-05-08T12:27:39.918Z,16.61
2023-05-08T12:30:12.698Z,16.98
2023-05-08T12:32:43.759Z,17.07
2023-05-08T12:35:12.246Z,17.06
2023-05-08T12:37:39.718Z,17.04
2023-05-08T12:40:07.565Z,17.03
2023-05-08T12:42:48.317Z,16.90
2023-05-08T12:45:23.207Z,17.01
2023-05-08T12:47:51.602Z,17.00
2023-05-08T12:50:21.237Z,17.11
2023-05-08T12:52:49.967Z,16.92
2023-05-08T12:55:29.482Z,16.91
2023-05-08T12:58:01.461Z,16.93
2023-05-08T13:00:39.396Z,16.79
2023-05-08T13:03:07.720Z,16.66
2023-05-08T13:05:36.855Z,16.80
2023-05-08T13:08:11.460Z,16.53
2023-05-08T13:10:55.246Z,16.79
2023-05-08T13:13:26.676Z,16.79
2023-05-08T13:15:54.968Z,16.68
2023-05-08T13:18:25.066Z,16.73
2023-05-08T13:20:51.794Z,16.72
2023-05-08T13:23:18.509Z,16.37
2023-05-08T13:25:45.188Z,16.20
2023-05-08T13:28:12.140Z,16.00
2023-05-08T13:30:39.182Z,16.13
2023-05-08T13:33:06.386Z,15.96
2023-05-08T13:35:33.957Z,15.96
2023-05-08T13:38:00.591Z,16.03
2023-05-08T13:40:27.802Z,16.01
2023-05-08T13:42:54.381Z,15.95
2023-05-08T13:45:21.095Z,15.82
2023-05-08T13:47:49.389Z,16.00
2023-05-08T13:50:18.338Z,15.93
2023-05-08T13:52:44.917Z,15.98
2023-05-08T13:55:14.093Z,15.96
2023-05-08T13:57:41.440Z,16.05
2023-05-08T14:00:09.328Z,16.18
2023-05-08T14:02:37.517Z,16.15
2023-05-08T14:05:05.364Z,16.13
2023-05-08T14:07:32.227Z,16.01
2023-05-08T14:09:58.847Z,15.73
2023-05-08T14:12:25.427Z,15.92
2023-05-08T14:14:51.968Z,15.90
2023-05-08T14:17:18.692Z,15.89
2023-05-08T14:19:46.224Z,15.63
2023-05-08T14:22:12.873Z,15.74
2023-05-08T14:24:39.970Z,15.74
2023-05-08T14:27:06.669Z,15.69
2023-05-08T14:29:34.311Z,15.89
2023-05-08T14:32:01.228Z,16.15
2023-05-08T14:34:27.974Z,16.28
2023-05-08T14:36:54.865Z,16.51
2023-05-08T14:39:21.483Z,16.50
2023-05-08T14:42:02.341Z,16.70
2023-05-08T14:44:34.879Z,16.79
2023-05-08T14:47:01.521Z,16.92
2023-05-08T14:49:37.573Z,16.75
2023-05-08T14:52:05.861Z,16.60
2023-05-08T14:54:32.569Z,16.36
2023-05-08T14:56:59.863Z,16.55
2023-05-08T14:59:26.500Z,16.43
2023-05-08T15:01:53.131Z,16.53
2023-05-08T15:04:19.821Z,16.41
2023-05-08T15:06:46.720Z,16.48
2023-05-08T15:09:13.459Z,16.41
2023-05-08T15:11:40.087Z,16.40
2023-05-08T15:14:06.659Z,16.32
2023-05-08T15:16:33.295Z,16.10
2023-05-08T15:19:00.068Z,16.08
2023-05-08T15:21:27.539Z,15.94
2023-05-08T15:23:55.545Z,15.80
2023-05-08T15:26:22.923Z,15.70
2023-05-08T15:28:49.804Z,15.71
2023-05-08T15:31:17.194Z,15.74
2023-05-08T15:33:45.220Z,15.67
2023-05-08T15:36:13.566Z,15.58
2023-05-08T15:38:41.056Z,15.71
2023-05-08T15:41:07.879Z,15.68
2023-05-08T15:43:34.436Z,15.62
2023-05-08T15:46:01.176Z,15.64
2023-05-08T15:48:27.891Z,15.55
2023-05-08T15:50:54.563Z,15.38
2023-05-08T15:53:21.156Z,15.43
2023-05-08T15:55:47.738Z,15.41
2023-05-08T15:58:14.524Z,15.32
2023-05-08T16:00:45.364Z,15.35
2023-05-08T16:03:12.396Z,15.29
2023-05-08T16:05:39.636Z,15.10
2023-05-08T16:08:07.560Z,15.01
2023-05-08T16:10:34.481Z,15.03
2023-05-08T16:13:01.235Z,15.00
2023-05-08T16:15:27.802Z,14.96
2023-05-08T16:17:54.587Z,14.97
2023-05-08T16:20:21.360Z,14.92
2023-05-08T16:22:47.923Z,14.89
2023-05-08T16:25:14.835Z,14.87
2023-05-08T16:27:41.566Z,14.85
2023-05-08T16:30:08.763Z,14.81
2023-05-08T16:32:35.348Z,14.77
2023-05-08T16:35:01.985Z,14.71
2023-05-08T16:37:28.578Z,14.75
2023-05-08T16:39:55.234Z,14.67
2023-05-08T16:42:21.968Z,14.64
2023-05-08T16:44:48.573Z,14.68
2023-05-08T16:47:15.218Z,14.76
2023-05-08T16:49:41.956Z,14.79
2023-05-08T16:52:08.558Z,14.85
2023-05-08T16:54:35.221Z,14.87
2023-05-08T16:57:01.898Z,14.95
2023-05-08T16:59:28.822Z,14.99
2023-05-08T17:01:55.386Z,14.98
2023-05-08T17:04:22.049Z,15.22
2023-05-08T17:06:48.740Z,15.43
2023-05-08T17:09:16.493Z,15.64
2023-05-08T17:11:43.221Z,15.67
2023-05-08T17:14:09.850Z,15.75
2023-05-08T17:16:36.605Z,15.65
2023-05-08T17:19:03.288Z,15.47
2023-05-08T17:21:31.962Z,15.41
2023-05-08T17:24:01.874Z,15.29
2023-05-08T17:26:32.424Z,15.36
2023-05-08T17:28:59.303Z,15.21
2023-05-08T17:31:25.936Z,15.02
2023-05-08T17:33:52.592Z,14.95
2023-05-08T17:36:19.173Z,15.00
2023-05-08T17:38:47.171Z,14.95
2023-05-08T17:41:14.052Z,14.79
2023-05-08T17:43:41.015Z,14.72
2023-05-08T17:46:07.852Z,14.64
2023-05-08T17:48:34.896Z,14.68
2023-05-08T17:51:02.729Z,14.64
2023-05-08T17:53:30.830Z,14.58
2023-05-08T17:55:58.058Z,14.48
2023-05-08T17:58:25.088Z,14.37
2023-05-08T18:00:52.048Z,14.34
2023-05-08T18:03:18.750Z,14.24
2023-05-08T18:05:45.695Z,14.17
2023-05-08T18:08:12.250Z,14.12
2023-05-08T18:10:39.459Z,14.15
2023-05-08T18:13:06.200Z,14.07
2023-05-08T18:15:36.017Z,14.05
2023-05-08T18:18:02.988Z,13.96
2023-05-08T18:20:29.662Z,13.97
2023-05-08T18:22:56.210Z,13.93
2023-05-08T18:25:22.759Z,13.91
2023-05-08T18:27:50.562Z,13.83
2023-05-08T18:30:17.244Z,13.79
2023-05-08T18:32:43.920Z,13.79
2023-05-08T18:35:11.044Z,13.76
2023-05-08T18:37:37.837Z,13.68
2023-05-08T18:40:05.128Z,13.61
2023-05-08T18:42:31.650Z,13.62
2023-05-08T18:45:00.469Z,13.58
2023-05-08T18:47:27.083Z,13.58
2023-05-08T18:49:53.900Z,13.61
2023-05-08T18:52:20.535Z,13.52
2023-05-08T18:54:47.180Z,13.43
2023-05-08T18:57:13.783Z,13.47
2023-05-08T18:59:40.386Z,13.32
2023-05-08T19:02:06.983Z,13.22
2023-05-08T19:04:33.562Z,13.28
2023-05-08T19:07:00.838Z,13.21
2023-05-08T19:09:27.395Z,13.13
2023-05-08T19:11:55.007Z,13.08
2023-05-08T19:14:21.675Z,13.01
2023-05-08T19:16:48.218Z,12.90
2023-05-08T19:19:14.848Z,12.84
2023-05-08T19:21:41.350Z,12.78
2023-05-08T19:24:11.780Z,12.75
2023-05-08T19:26:38.470Z,12.72
2023-05-08T19:29:05.033Z,12.65
2023-05-08T19:31:31.701Z,12.60
2023-05-08T19:33:58.402Z,12.54
2023-05-08T19:36:25.023Z,12.56
2023-05-08T19:38:51.769Z,12.49
2023-05-08T19:41:18.458Z,12.46
2023-05-08T19:43:45.045Z,12.46
2023-05-08T19:46:11.954Z,12.41
2023-05-08T19:48:38.496Z,12.34
2023-05-08T19:51:09.616Z,12.36
2023-05-08T19:53:36.500Z,12.23
2023-05-08T19:56:03.278Z,12.06
2023-05-08T19:58:29.845Z,11.98
2023-05-08T20:00:56.556Z,11.99
2023-05-08T20:03:23.491Z,12.01
2023-05-08T20:05:53.225Z,11.99
2023-05-08T20:08:20.065Z,11.98
2023-05-08T20:10:49.509Z,12.00
2023-05-08T20:13:17.433Z,11.96
2023-05-08T20:15:44.415Z,11.98
2023-05-08T20:18:11.006Z,11.92
2023-05-08T20:20:37.735Z,11.85
2023-05-08T20:23:04.549Z,11.80
2023-05-08T20:25:31.207Z,11.75
2023-05-08T20:27:57.874Z,11.71
2023-05-08T20:30:24.550Z,11.64
2023-05-08T20:32:51.239Z,11.58
2023-05-08T20:35:17.984Z,11.53
2023-05-08T20:37:46.249Z,11.45
2023-05-08T20:40:14.863Z,11.39
2023-05-08T20:42:41.678Z,11.31
2023-05-08T20:45:10.640Z,11.23
2023-05-08T20:47:37.423Z,11.23
2023-05-08T20:50:04.536Z,11.13
2023-05-08T20:52:32.340Z,11.05
2023-05-08T20:54:59.294Z,10.95
2023-05-08T20:57:26.182Z,10.83
2023-05-08T20:59:52.842Z,10.75
2023-05-08T21:02:19.572Z,10.69
2023-05-08T21:04:46.218Z,10.67
2023-05-08T21:07:12.976Z,10.61
2023-05-08T21:09:39.795Z,10.50
2023-05-08T21:12:06.783Z,10.51
2023-05-08T21:14:35.481Z,10.30
2023-05-08T21:17:02.120Z,10.23
2023-05-08T21:19:30.920Z,10.23
2023-05-08T21:21:57.796Z,10.17
2023-05-08T21:24:25.647Z,10.13
2023-05-08T21:26:53.408Z,10.17
2023-05-08T21:29:20.157Z,10.06
2023-05-08T21:31:46.945Z,9.99
2023-05-08T21:34:14.833Z,9.96
2023-05-08T21:36:41.830Z,10.00
2023-05-08T21:39:08.874Z,9.99
2023-05-08T21:41:35.646Z,9.99
2023-05-08T21:44:02.329Z,9.96
2023-05-08T21:46:29.163Z,9.92
2023-05-08T21:48:55.763Z,9.88
2023-05-08T21:51:22.361Z,9.86
2023-05-08T21:53:49.213Z,9.80
2023-05-08T21:56:16.641Z,9.74
2023-05-08T21:58:43.201Z,9.69
2023-05-08T22:01:10.154Z,9.62
2023-05-08T22:03:37.038Z,9.54
2023-05-08T22:06:03.934Z,9.46
2023-05-08T22:08:30.640Z,9.39
2023-05-08T22:10:57.403Z,9.33
2023-05-08T22:13:23.992Z,9.28
2023-05-08T22:15:50.854Z,9.26
2023-05-08T22:18:18.033Z,9.31
2023-05-08T22:20:44.899Z,9.27
2023-05-08T22:23:11.446Z,9.26
2023-05-08T22:25:38.177Z,9.30
2023-05-08T22:28:04.869Z,9.19
2023-05-08T22:30:31.544Z,9.08
2023-05-08T22:32:58.287Z,9.11
2023-05-08T22:35:27.317Z,9.11
2023-05-08T22:37:54.656Z,9.10
2023-05-08T22:40:22.144Z,9.10
2023-05-08T22:42:51.701Z,9.10
2023-05-08T22:45:18.566Z,9.11
2023-05-08T22:47:45.740Z,9.12
2023-05-08T22:50:12.456Z,9.14
2023-05-08T22:52:39.750Z,9.15
2023-05-08T22:55:06.984Z,9.14
2023-05-08T22:57:33.797Z,9.13
2023-05-08T23:00:00.555Z,9.11
2023-05-08T23:02:33.896Z,9.16
2023-05-08T23:05:01.892Z,9.17
2023-05-08T23:07:29.103Z,9.17
2023-05-08T23:09:55.811Z,9.22
2023-05-08T23:12:22.384Z,9.22
2023-05-08T23:14:48.901Z,9.30
2023-05-08T23:17:15.543Z,9.30
2023-05-08T23:19:42.424Z,9.31
2023-05-08T23:22:09.445Z,9.29
2023-05-08T23:24:36.473Z,9.25
2023-05-08T23:27:03.398Z,9.23
2023-05-08T23:29:30.225Z,9.19
2023-05-08T23:31:56.938Z,9.18
2023-05-08T23:34:23.553Z,9.09
2023-05-08T23:36:50.164Z,9.05
2023-05-08T23:39:16.910Z,8.99
2023-05-08T23:41:43.581Z,8.91
2023-05-08T23:44:10.462Z,8.84
2023-05-08T23:46:37.118Z,8.83
2023-05-08T23:49:05.433Z,8.80
2023-05-08T23:51:32.540Z,8.78
2023-05-08T23:53:59.166Z,8.69
2023-05-08T23:56:26.826Z,8.66
2023-05-08T23:58:53.431Z,8.63
